Данни от 19.04.2021 г. 09:19:03

Температура вътрешна: 20.6 °C
Температура външна: 11.1 °C
Атмосферно налягане: 998.2 hPa
Атмосферно налягане на морско равнище: 1016.0 hPa
Влажност: 54.0 %



История от последните 24 часа

Дата и часTin [°C]P [hPa]Psl [hPa]H [%]Tout [°C]
   19.04.2021 г. 09:00:02      20.7      998.1      1015.9      54.0      10.6   
   19.04.2021 г. 08:30:03      20.7      998.2      1016.0      54.2      10.0   
   19.04.2021 г. 08:00:02      20.7      998.1      1016.0      52.0      10.0   
   19.04.2021 г. 07:30:03      20.7      998.2      1016.0      52.2      10.9   
   19.04.2021 г. 07:00:02      20.6      998.5      1016.3      50.9      9.0   
   19.04.2021 г. 06:30:03      21.0      998.4      1016.2      54.8      9.3   
   19.04.2021 г. 06:00:02      21.2      998.7      1016.5      53.8      9.0   
   19.04.2021 г. 05:30:03      21.2      998.5      1016.3      54.2      10.8   
   19.04.2021 г. 05:00:02      21.2      998.7      1016.5      54.9      10.6   
   19.04.2021 г. 04:30:03      21.2      998.5      1016.3      54.3      10.1   
   19.04.2021 г. 04:00:02      21.2      998.5      1016.4      53.8      10.0   
   19.04.2021 г. 03:30:03      21.2      998.8      1016.6      53.3      11.5   
   19.04.2021 г. 03:00:03      21.2      999.0      1016.8      53.3      10.9   
   19.04.2021 г. 02:30:03      21.3      999.3      1017.2      52.9      10.8   
   19.04.2021 г. 02:00:03      21.3      999.5      1017.3      53.3      9.5   
   19.04.2021 г. 01:30:02      21.3      999.7      1017.5      53.5      9.3   
   19.04.2021 г. 01:00:02      21.4      999.8      1017.6      53.3      11.0   
   19.04.2021 г. 00:30:02      21.4      999.9      1017.7      53.0      11.0   
   19.04.2021 г. 00:00:03      21.4      999.9      1017.8      53.4      10.6   
   18.04.2021 г. 23:30:02      21.4      999.9      1017.8      53.0      10.6   
   18.04.2021 г. 23:00:03      21.5      1000.0      1017.9      53.3      10.4   
   18.04.2021 г. 22:30:02      21.4      1000.0      1017.8      53.4      10.1   
   18.04.2021 г. 22:00:03      21.3      1000.2      1018.0      54.2      9.9   
   18.04.2021 г. 21:30:02      21.4      999.8      1017.6      53.5      10.3   
   18.04.2021 г. 21:00:03      21.5      999.6      1017.4      54.9      10.6   
   18.04.2021 г. 20:30:02      21.5      999.2      1017.0      54.7      10.6   
   18.04.2021 г. 20:00:03      21.6      998.8      1016.6      54.6      10.6   
   18.04.2021 г. 19:30:02      21.5      998.2      1016.1      54.9      11.0   
   18.04.2021 г. 19:00:03      21.5      997.8      1015.6      53.8      11.1   
   18.04.2021 г. 18:30:02      21.5      997.9      1015.7      52.3      11.0   
   18.04.2021 г. 18:00:03      21.4      997.7      1015.5      52.0      12.0   
   18.04.2021 г. 17:30:02      21.3      997.3      1015.1      50.3      11.5   
   18.04.2021 г. 17:00:03      21.2      996.9      1014.7      49.5      14.1   
   18.04.2021 г. 16:30:02      21.1      996.5      1014.3      49.9      15.0   
   18.04.2021 г. 16:00:02      20.9      996.2      1014.0      50.4      15.9   
   18.04.2021 г. 15:30:02      20.7      996.1      1013.8      49.6      16.1   
   18.04.2021 г. 15:00:02      20.7      995.8      1013.5      50.3      16.6   
   18.04.2021 г. 14:30:02      20.5      995.7      1013.5      50.9      17.0   
   18.04.2021 г. 14:00:03      20.3      995.9      1013.7      50.4      16.8   
   18.04.2021 г. 13:30:02      20.0      995.9      1013.7      50.3      17.0   
   18.04.2021 г. 13:00:03      19.8      995.7      1013.5      49.7      16.5   
   18.04.2021 г. 12:30:02      19.6      995.7      1013.5      49.3      15.6   
   18.04.2021 г. 12:00:03      19.3      996.1      1013.8      48.4      14.9   
   18.04.2021 г. 11:30:02      19.4      996.2      1013.9      48.0      13.9   
   18.04.2021 г. 11:00:03      19.3      996.5      1014.3      47.9      13.4   
   18.04.2021 г. 10:30:02      19.3      996.4      1014.2      47.9      13.0   
   18.04.2021 г. 10:00:02      19.3      996.3      1014.1      48.0      12.8   
   18.04.2021 г. 09:30:02      19.3      996.1      1013.8      48.2      12.1   

BaroSL graphic

TEMPE graphic